• Join FlightAware (Why Join?)
  • Login
  • US Flag 
03:58AM EDT


 

Airport Tracker/Info


-or-


 

Live Flight TrackerFlight Track Log ✈ JBU56 ✈ 29-Jul-2013 ✈ KIAD - KBOS

Flight Track Log - Related Links

Times and Time Zones

All times are in EDT time to prevent confusion due to time zone crossing. See the JBU56 flight status page for this flight to view local times or setup timezone preferences in your user account.

Time Position Orientation Groundspeed Altitude Reporting Facility
EDT Latitude Longitude Course Direction KTS MPH feet Rate Location/Type
09:11AM 38.9667 -77.5500 90° East 180 207 2,900  Level Potomac TRACON
09:12AM 39.0167 -77.5667 345° North 226 260 4,800 2,220 Climbing Potomac TRACON
09:13AM 39.0833 -77.5167 30° Northeast 289 333 7,200 2,520 Climbing Potomac TRACON
09:14AM 39.1333 -77.4333 52° Northeast 317 365 10,000 1,980 Climbing Potomac TRACON
09:15AM 39.1667 -77.3333 67° East 350 403 11,000 1,380 Climbing Potomac TRACON
09:16AM 39.0667 -76.6849 90° East  Level FlightAware Approximate
09:16AM 39.1181 -77.1406 108° East 369 425 13,400  Level Washington Center
09:17AM 39.0989 -77.0197 102° East 375 432 15,600 2,220 Climbing Washington Center
09:18AM 39.1108 -76.8703 84° East 395 455 17,900 1,980 Climbing Washington Center
09:19AM 39.1206 -76.7206 85° East 404 465 19,600 1,800 Climbing Washington Center
09:20AM 39.1303 -76.5628 85° East 422 486 21,500 1,680 Climbing Washington Center
09:21AM 39.1400 -76.3972 86° East 440 506 23,000 720 Climbing Washington Center
09:22AM 39.1514 -76.2286 85° East 459 528 23,000 540 Level Washington Center
09:23AM 39.1814 -76.0656 77° East 465 535 24,200 1,320 Climbing Washington Center
09:24AM 39.2672 -75.9267 51° Northeast 458 527 25,700 1,500 Climbing Washington Center
09:25AM 39.3717 -75.7822 47° Northeast 483 556 27,200 1,380 Climbing Washington Center
09:26AM 39.4656 -75.6400 49° Northeast 504 580 28,600 1,140 Climbing Washington Center
09:28AM 39.6692 -75.3208 50° Northeast 508 585 31,000 720 Climbing New York Center
09:29AM 39.7664 -75.1783 48° Northeast 514 592 31,000  Level New York Center
09:30AM 39.8572 -75.0328 51° Northeast 514 592 31,000  Level New York Center
09:31AM 39.9497 -74.8922 49° Northeast 514 592 31,000  Level New York Center
09:32AM 40.0314 -74.7642 50° Northeast 508 585 31,000 -480 Level New York Center
09:33AM 40.1325 -74.6069 50° Northeast 514 592 30,100 -1,020 Descending New York Center
09:34AM 40.2350 -74.4658 46° Northeast 509 586 29,000 -600 Descending New York Center
09:35AM 40.3408 -74.3408 42° Northeast 515 593 29,000  Level New York Center
09:36AM 40.4219 -74.2061 52° Northeast 522 601 29,000  Level New York Center
09:37AM 40.5208 -74.0308 53° Northeast 534 615 29,000 -360 Level New York Center
09:38AM 40.6103 -73.8767 53° Northeast 540 621 28,400 -1,380 Descending New York Center
09:41AM 40.8239 -73.5042 53° Northeast 516 594 24,300 -1,260 Descending Boston Center
09:42AM 40.9128 -73.3656 50° Northeast 504 580 24,000 -180 Descending Boston Center
09:43AM 41.0197 -73.2625 36° Northeast 475 547 24,000 -300 Level Boston Center
09:44AM 41.1414 -73.1758 28° Northeast 481 554 23,500 -540 Descending Boston Center
09:45AM 41.2586 -73.0889 29° Northeast 486 559 23,000 -300 Descending Boston Center
09:46AM 41.3694 -72.9933 33° Northeast 481 554 23,000  Level Boston Center
09:47AM 41.4286 -72.8389 63° Northeast 456 525 23,000  Level Boston Center
09:48AM 41.4436 -72.6672 83° East 437 503 23,000  Level Boston Center
09:49AM 41.4583 -72.4983 83° East 445 512 23,000 -360 Level Boston Center
09:50AM 41.4708 -72.3319 84° East 451 519 22,400 -1,500 Descending Boston Center
09:51AM 41.4956 -72.1714 78° East 451 519 20,100 -2,100 Descending Boston Center
09:52AM 41.5244 -72.0381 74° East 423 487 18,200 -1,680 Descending Boston Center
09:53AM 41.5133 -71.8717 95° East 404 465 16,800 -1,440 Descending Boston Center
09:54AM 41.5167 -71.7386 88° East 404 465 15,400 -1,980 Descending Boston Center
09:55AM 41.5867 -71.6103 54° Northeast 377 434 12,900 -2,280 Descending Boston Center
09:56AM 41.6608 -71.5147 44° Northeast 377 434 11,000 -1,020 Descending Boston Center
09:57AM 41.7228 -71.4222 48° Northeast 340 391 11,000  Level Boston Center
09:58AM 41.7467 -71.3103 74° East 307 353 11,000  Level Boston Center
09:59AM 41.7728 -71.2125 70° East 292 336 11,000 -120 Level Boston Center
10:00AM 41.8219 -71.1392 48° Northeast 263 303 10,800 -960 Descending Boston Center
10:02AM 41.9500 -71.1500 356° North 257 296 8,500 -1,500 Descending KA90
10:03AM 42.0167 -71.1500 360° North 250 288 6,800 -1,560 Descending KA90
10:04AM 42.0833 -71.1500 360° North 250 288 5,600 -1,260 Descending KA90
10:05AM 42.1333 -71.1167 26° Northeast 238 274 4,400 -1,200 Descending KA90
10:06AM 42.2000 -71.0833 20° North 229 264 3,200 -1,200 Descending KA90
10:07AM 42.2500 -71.0500 26° Northeast 197 227 2,100 -1,020 Descending KA90
10:08AM 42.3000 -71.0333 14° North 179 206 1,200 -840 Descending KA90
10:08AM 42.3333 -71.0167 20° North 147 169 500 -780 Descending KA90
10:11AM 42.3500 -71.0000 North  Level FlightAware Approximate